sensor_id;sensor_type;location;lat;lon;timestamp;P1;durP1;ratioP1;P2;durP2;ratioP2
22829;SDS011;11581;51.250;6.778;2023-02-12T00:01:15;34.08;;;21.45;;
22829;SDS011;11581;51.250;6.778;2023-02-12T00:03:42;40.10;;;21.65;;
22829;SDS011;11581;51.250;6.778;2023-02-12T00:06:10;33.47;;;21.02;;
22829;SDS011;11581;51.250;6.778;2023-02-12T00:08:37;32.67;;;21.25;;
22829;SDS011;11581;51.250;6.778;2023-02-12T00:11:08;30.83;;;20.58;;
22829;SDS011;11581;51.250;6.778;2023-02-12T00:13:36;36.10;;;22.77;;
22829;SDS011;11581;51.250;6.778;2023-02-12T00:16:04;33.67;;;21.80;;
22829;SDS011;11581;51.250;6.778;2023-02-12T00:18:33;37.75;;;22.95;;
22829;SDS011;11581;51.250;6.778;2023-02-12T00:21:00;35.45;;;21.88;;
22829;SDS011;11581;51.250;6.778;2023-02-12T00:23:30;33.08;;;21.50;;
22829;SDS011;11581;51.250;6.778;2023-02-12T00:25:57;32.10;;;21.38;;
22829;SDS011;11581;51.250;6.778;2023-02-12T00:28:24;32.58;;;21.60;;
22829;SDS011;11581;51.250;6.778;2023-02-12T00:30:51;32.90;;;21.15;;
22829;SDS011;11581;51.250;6.778;2023-02-12T00:33:18;33.63;;;21.77;;
22829;SDS011;11581;51.250;6.778;2023-02-12T00:35:44;31.65;;;21.45;;
22829;SDS011;11581;51.250;6.778;2023-02-12T00:38:22;31.40;;;20.55;;
22829;SDS011;11581;51.250;6.778;2023-02-12T00:40:50;32.03;;;20.45;;
22829;SDS011;11581;51.250;6.778;2023-02-12T00:43:18;32.80;;;21.50;;
22829;SDS011;11581;51.250;6.778;2023-02-12T00:45:44;33.17;;;22.10;;
22829;SDS011;11581;51.250;6.778;2023-02-12T00:48:12;31.90;;;21.52;;
22829;SDS011;11581;51.250;6.778;2023-02-12T00:50:42;34.47;;;21.35;;
22829;SDS011;11581;51.250;6.778;2023-02-12T00:53:10;31.23;;;20.95;;
22829;SDS011;11581;51.250;6.778;2023-02-12T00:55:37;37.35;;;21.92;;
22829;SDS011;11581;51.250;6.778;2023-02-12T00:58:06;31.25;;;21.08;;
22829;SDS011;11581;51.250;6.778;2023-02-12T01:00:33;34.78;;;21.13;;
22829;SDS011;11581;51.250;6.778;2023-02-12T01:03:03;32.13;;;21.25;;
22829;SDS011;11581;51.250;6.778;2023-02-12T01:05:30;31.02;;;20.85;;
22829;SDS011;11581;51.250;6.778;2023-02-12T01:07:58;37.67;;;23.52;;
22829;SDS011;11581;51.250;6.778;2023-02-12T01:10:26;34.95;;;22.60;;
22829;SDS011;11581;51.250;6.778;2023-02-12T01:12:53;34.20;;;23.05;;
22829;SDS011;11581;51.250;6.778;2023-02-12T01:15:21;32.53;;;21.38;;
22829;SDS011;11581;51.250;6.778;2023-02-12T01:17:50;33.00;;;21.63;;
22829;SDS011;11581;51.250;6.778;2023-02-12T01:20:18;32.17;;;21.48;;
22829;SDS011;11581;51.250;6.778;2023-02-12T01:22:47;34.53;;;22.63;;
22829;SDS011;11581;51.250;6.778;2023-02-12T01:25:16;36.85;;;21.48;;
22829;SDS011;11581;51.250;6.778;2023-02-12T01:27:44;35.65;;;22.35;;
22829;SDS011;11581;51.250;6.778;2023-02-12T01:30:11;36.33;;;23.15;;
22829;SDS011;11581;51.250;6.778;2023-02-12T01:32:41;32.10;;;21.40;;
22829;SDS011;11581;51.250;6.778;2023-02-12T01:35:09;34.80;;;22.98;;
22829;SDS011;11581;51.250;6.778;2023-02-12T01:37:39;33.15;;;21.70;;
22829;SDS011;11581;51.250;6.778;2023-02-12T01:40:07;40.92;;;23.23;;
22829;SDS011;11581;51.250;6.778;2023-02-12T01:42:35;37.30;;;23.77;;
22829;SDS011;11581;51.250;6.778;2023-02-12T01:48:11;32.55;;;21.08;;
22829;SDS011;11581;51.250;6.778;2023-02-12T01:50:38;36.15;;;22.50;;
22829;SDS011;11581;51.250;6.778;2023-02-12T01:53:08;33.55;;;22.00;;
22829;SDS011;11581;51.250;6.778;2023-02-12T01:55:37;33.75;;;21.98;;
22829;SDS011;11581;51.250;6.778;2023-02-12T01:58:05;31.65;;;21.77;;
22829;SDS011;11581;51.250;6.778;2023-02-12T02:00:34;34.67;;;21.58;;
22829;SDS011;11581;51.250;6.778;2023-02-12T02:03:01;30.98;;;20.58;;
22829;SDS011;11581;51.250;6.778;2023-02-12T02:05:32;34.80;;;21.52;;
22829;SDS011;11581;51.250;6.778;2023-02-12T02:08:07;34.47;;;22.20;;
22829;SDS011;11581;51.250;6.778;2023-02-12T02:10:34;34.97;;;22.38;;
22829;SDS011;11581;51.250;6.778;2023-02-12T02:13:01;37.42;;;22.55;;
22829;SDS011;11581;51.250;6.778;2023-02-12T02:18:16;29.75;;;17.85;;
22829;SDS011;11581;51.250;6.778;2023-02-12T02:23:41;31.17;;;19.33;;
22829;SDS011;11581;51.250;6.778;2023-02-12T02:26:35;29.17;;;19.15;;
22829;SDS011;11581;51.250;6.778;2023-02-12T02:32:26;34.65;;;21.60;;
22829;SDS011;11581;51.250;6.778;2023-02-12T02:34:58;34.90;;;22.83;;
22829;SDS011;11581;51.250;6.778;2023-02-12T02:37:30;34.67;;;22.45;;
22829;SDS011;11581;51.250;6.778;2023-02-12T02:40:01;36.80;;;22.67;;
22829;SDS011;11581;51.250;6.778;2023-02-12T02:42:36;33.13;;;21.73;;
22829;SDS011;11581;51.250;6.778;2023-02-12T02:45:12;32.50;;;21.45;;
22829;SDS011;11581;51.250;6.778;2023-02-12T02:47:47;32.78;;;22.95;;
22829;SDS011;11581;51.250;6.778;2023-02-12T02:50:18;36.03;;;23.75;;
22829;SDS011;11581;51.250;6.778;2023-02-12T02:52:49;37.65;;;22.50;;
22829;SDS011;11581;51.250;6.778;2023-02-12T02:55:19;30.90;;;21.15;;
22829;SDS011;11581;51.250;6.778;2023-02-12T02:57:50;35.13;;;23.10;;
22829;SDS011;11581;51.250;6.778;2023-02-12T03:00:22;34.85;;;22.83;;
22829;SDS011;11581;51.250;6.778;2023-02-12T03:02:55;31.38;;;21.15;;
22829;SDS011;11581;51.250;6.778;2023-02-12T03:05:28;32.00;;;20.60;;
22829;SDS011;11581;51.250;6.778;2023-02-12T03:08:00;33.90;;;21.08;;
22829;SDS011;11581;51.250;6.778;2023-02-12T03:10:35;31.85;;;20.92;;
22829;SDS011;11581;51.250;6.778;2023-02-12T03:13:07;32.80;;;21.65;;
22829;SDS011;11581;51.250;6.778;2023-02-12T03:15:38;34.95;;;21.92;;
22829;SDS011;11581;51.250;6.778;2023-02-12T03:18:10;33.70;;;21.50;;
22829;SDS011;11581;51.250;6.778;2023-02-12T03:20:43;35.53;;;21.85;;
22829;SDS011;11581;51.250;6.778;2023-02-12T03:23:13;32.30;;;21.13;;
22829;SDS011;11581;51.250;6.778;2023-02-12T03:25:47;36.43;;;22.30;;
22829;SDS011;11581;51.250;6.778;2023-02-12T03:28:21;32.95;;;21.88;;
22829;SDS011;11581;51.250;6.778;2023-02-12T03:30:56;35.97;;;23.08;;
22829;SDS011;11581;51.250;6.778;2023-02-12T03:33:35;30.48;;;20.80;;
22829;SDS011;11581;51.250;6.778;2023-02-12T03:36:13;33.40;;;22.17;;
22829;SDS011;11581;51.250;6.778;2023-02-12T03:38:52;31.17;;;21.60;;
22829;SDS011;11581;51.250;6.778;2023-02-12T03:41:23;34.28;;;22.48;;
22829;SDS011;11581;51.250;6.778;2023-02-12T03:43:58;33.97;;;22.40;;
22829;SDS011;11581;51.250;6.778;2023-02-12T03:46:36;33.63;;;22.35;;
22829;SDS011;11581;51.250;6.778;2023-02-12T03:51:42;27.63;;;19.95;;
22829;SDS011;11581;51.250;6.778;2023-02-12T03:54:12;30.23;;;20.30;;
22829;SDS011;11581;51.250;6.778;2023-02-12T03:56:43;35.08;;;21.85;;
22829;SDS011;11581;51.250;6.778;2023-02-12T03:59:16;33.85;;;22.15;;
22829;SDS011;11581;51.250;6.778;2023-02-12T04:01:45;31.55;;;21.73;;
22829;SDS011;11581;51.250;6.778;2023-02-12T04:04:15;33.22;;;21.33;;
22829;SDS011;11581;51.250;6.778;2023-02-12T04:06:43;30.35;;;20.58;;
22829;SDS011;11581;51.250;6.778;2023-02-12T04:09:11;30.20;;;20.45;;
22829;SDS011;11581;51.250;6.778;2023-02-12T04:11:46;29.23;;;21.20;;
22829;SDS011;11581;51.250;6.778;2023-02-12T04:14:23;32.70;;;21.65;;
22829;SDS011;11581;51.250;6.778;2023-02-12T04:16:58;31.38;;;20.50;;
22829;SDS011;11581;51.250;6.778;2023-02-12T04:19:35;30.95;;;20.70;;
22829;SDS011;11581;51.250;6.778;2023-02-12T04:22:13;35.45;;;21.70;;
22829;SDS011;11581;51.250;6.778;2023-02-12T04:24:54;32.03;;;21.77;;
22829;SDS011;11581;51.250;6.778;2023-02-12T04:27:29;36.65;;;21.15;;
22829;SDS011;11581;51.250;6.778;2023-02-12T04:30:04;33.88;;;20.50;;
22829;SDS011;11581;51.250;6.778;2023-02-12T04:32:40;36.50;;;21.30;;
22829;SDS011;11581;51.250;6.778;2023-02-12T04:35:17;32.88;;;21.65;;
22829;SDS011;11581;51.250;6.778;2023-02-12T04:37:48;32.33;;;21.55;;
22829;SDS011;11581;51.250;6.778;2023-02-12T04:40:21;32.35;;;22.27;;
22829;SDS011;11581;51.250;6.778;2023-02-12T04:42:49;32.47;;;22.33;;
22829;SDS011;11581;51.250;6.778;2023-02-12T04:45:20;34.75;;;21.77;;
22829;SDS011;11581;51.250;6.778;2023-02-12T04:47:49;36.05;;;22.83;;
22829;SDS011;11581;51.250;6.778;2023-02-12T04:50:19;37.50;;;23.67;;
22829;SDS011;11581;51.250;6.778;2023-02-12T04:52:46;37.13;;;24.08;;
22829;SDS011;11581;51.250;6.778;2023-02-12T04:55:14;35.83;;;22.92;;
22829;SDS011;11581;51.250;6.778;2023-02-12T04:57:42;34.42;;;22.80;;
22829;SDS011;11581;51.250;6.778;2023-02-12T05:00:10;37.00;;;24.50;;
22829;SDS011;11581;51.250;6.778;2023-02-12T05:02:40;37.42;;;23.55;;
22829;SDS011;11581;51.250;6.778;2023-02-12T05:05:07;38.92;;;22.83;;
22829;SDS011;11581;51.250;6.778;2023-02-12T05:07:35;33.88;;;21.92;;
22829;SDS011;11581;51.250;6.778;2023-02-12T05:10:02;36.05;;;23.05;;
22829;SDS011;11581;51.250;6.778;2023-02-12T05:12:30;35.17;;;23.20;;
22829;SDS011;11581;51.250;6.778;2023-02-12T05:14:57;37.60;;;23.08;;
22829;SDS011;11581;51.250;6.778;2023-02-12T05:17:24;37.22;;;23.05;;
22829;SDS011;11581;51.250;6.778;2023-02-12T05:19:51;39.05;;;23.83;;
22829;SDS011;11581;51.250;6.778;2023-02-12T05:22:18;38.05;;;22.70;;
22829;SDS011;11581;51.250;6.778;2023-02-12T05:24:46;36.47;;;22.10;;
22829;SDS011;11581;51.250;6.778;2023-02-12T05:27:13;38.03;;;23.10;;
22829;SDS011;11581;51.250;6.778;2023-02-12T05:29:40;34.30;;;22.15;;
22829;SDS011;11581;51.250;6.778;2023-02-12T05:32:07;39.05;;;24.30;;
22829;SDS011;11581;51.250;6.778;2023-02-12T05:34:35;34.78;;;22.08;;
22829;SDS011;11581;51.250;6.778;2023-02-12T05:37:01;32.17;;;21.00;;
22829;SDS011;11581;51.250;6.778;2023-02-12T05:39:28;38.55;;;22.52;;
22829;SDS011;11581;51.250;6.778;2023-02-12T05:41:57;37.13;;;22.63;;
22829;SDS011;11581;51.250;6.778;2023-02-12T05:44:24;35.90;;;23.05;;
22829;SDS011;11581;51.250;6.778;2023-02-12T05:46:51;36.60;;;22.48;;
22829;SDS011;11581;51.250;6.778;2023-02-12T05:49:20;35.53;;;22.38;;
22829;SDS011;11581;51.250;6.778;2023-02-12T05:51:48;39.17;;;23.05;;
22829;SDS011;11581;51.250;6.778;2023-02-12T05:54:15;34.67;;;22.70;;
22829;SDS011;11581;51.250;6.778;2023-02-12T05:56:43;40.15;;;24.33;;
22829;SDS011;11581;51.250;6.778;2023-02-12T05:59:13;35.10;;;22.40;;
22829;SDS011;11581;51.250;6.778;2023-02-12T06:01:42;33.50;;;22.15;;
22829;SDS011;11581;51.250;6.778;2023-02-12T06:04:12;36.63;;;22.63;;
22829;SDS011;11581;51.250;6.778;2023-02-12T06:06:43;37.78;;;24.08;;
22829;SDS011;11581;51.250;6.778;2023-02-12T06:09:10;36.90;;;22.98;;
22829;SDS011;11581;51.250;6.778;2023-02-12T06:11:38;39.75;;;21.75;;
22829;SDS011;11581;51.250;6.778;2023-02-12T06:14:06;35.22;;;21.27;;
22829;SDS011;11581;51.250;6.778;2023-02-12T06:16:35;33.22;;;21.35;;
22829;SDS011;11581;51.250;6.778;2023-02-12T06:19:03;38.70;;;23.67;;
22829;SDS011;11581;51.250;6.778;2023-02-12T06:21:31;31.27;;;22.05;;
22829;SDS011;11581;51.250;6.778;2023-02-12T06:23:59;37.33;;;23.25;;
22829;SDS011;11581;51.250;6.778;2023-02-12T06:26:25;32.85;;;21.13;;
22829;SDS011;11581;51.250;6.778;2023-02-12T06:28:53;35.00;;;22.25;;
22829;SDS011;11581;51.250;6.778;2023-02-12T06:31:21;36.90;;;22.58;;
22829;SDS011;11581;51.250;6.778;2023-02-12T06:33:51;36.75;;;22.90;;
22829;SDS011;11581;51.250;6.778;2023-02-12T06:36:19;35.50;;;23.13;;
22829;SDS011;11581;51.250;6.778;2023-02-12T06:38:47;33.20;;;22.63;;
22829;SDS011;11581;51.250;6.778;2023-02-12T06:41:16;38.25;;;22.95;;
22829;SDS011;11581;51.250;6.778;2023-02-12T06:43:43;35.28;;;21.67;;
22829;SDS011;11581;51.250;6.778;2023-02-12T06:46:10;34.50;;;22.65;;
22829;SDS011;11581;51.250;6.778;2023-02-12T06:48:37;39.53;;;22.95;;
22829;SDS011;11581;51.250;6.778;2023-02-12T06:51:06;36.50;;;21.85;;
22829;SDS011;11581;51.250;6.778;2023-02-12T06:53:34;35.40;;;21.88;;
22829;SDS011;11581;51.250;6.778;2023-02-12T06:56:01;32.85;;;21.60;;
22829;SDS011;11581;51.250;6.778;2023-02-12T06:58:29;35.13;;;22.30;;
22829;SDS011;11581;51.250;6.778;2023-02-12T07:00:56;35.67;;;22.98;;
22829;SDS011;11581;51.250;6.778;2023-02-12T07:03:23;36.17;;;22.38;;
22829;SDS011;11581;51.250;6.778;2023-02-12T07:05:51;39.05;;;23.05;;
22829;SDS011;11581;51.250;6.778;2023-02-12T07:08:20;40.78;;;24.23;;
22829;SDS011;11581;51.250;6.778;2023-02-12T07:10:47;38.88;;;23.13;;
22829;SDS011;11581;51.250;6.778;2023-02-12T07:13:15;37.58;;;22.83;;
22829;SDS011;11581;51.250;6.778;2023-02-12T07:15:42;36.38;;;23.20;;
22829;SDS011;11581;51.250;6.778;2023-02-12T07:18:09;41.38;;;22.88;;
22829;SDS011;11581;51.250;6.778;2023-02-12T07:20:36;33.25;;;21.27;;
22829;SDS011;11581;51.250;6.778;2023-02-12T07:23:03;38.80;;;22.83;;
22829;SDS011;11581;51.250;6.778;2023-02-12T07:25:36;40.50;;;23.58;;
22829;SDS011;11581;51.250;6.778;2023-02-12T07:28:03;36.38;;;23.45;;
22829;SDS011;11581;51.250;6.778;2023-02-12T07:30:30;38.58;;;23.50;;
22829;SDS011;11581;51.250;6.778;2023-02-12T07:32:57;40.53;;;24.08;;
22829;SDS011;11581;51.250;6.778;2023-02-12T07:35:24;38.33;;;22.80;;
22829;SDS011;11581;51.250;6.778;2023-02-12T07:37:51;40.33;;;23.55;;
22829;SDS011;11581;51.250;6.778;2023-02-12T07:40:18;37.75;;;23.52;;
22829;SDS011;11581;51.250;6.778;2023-02-12T07:42:46;39.92;;;23.58;;
22829;SDS011;11581;51.250;6.778;2023-02-12T07:45:19;39.28;;;22.88;;
22829;SDS011;11581;51.250;6.778;2023-02-12T07:47:46;36.30;;;23.58;;
22829;SDS011;11581;51.250;6.778;2023-02-12T07:50:14;36.20;;;23.40;;
22829;SDS011;11581;51.250;6.778;2023-02-12T07:52:41;39.00;;;24.27;;
22829;SDS011;11581;51.250;6.778;2023-02-12T07:55:11;40.90;;;25.83;;
22829;SDS011;11581;51.250;6.778;2023-02-12T07:57:38;38.92;;;25.73;;
22829;SDS011;11581;51.250;6.778;2023-02-12T08:00:08;34.38;;;22.15;;
22829;SDS011;11581;51.250;6.778;2023-02-12T08:02:39;34.17;;;23.60;;
22829;SDS011;11581;51.250;6.778;2023-02-12T08:05:07;40.72;;;24.52;;
22829;SDS011;11581;51.250;6.778;2023-02-12T08:07:34;38.97;;;23.75;;
22829;SDS011;11581;51.250;6.778;2023-02-12T08:10:02;36.20;;;23.92;;
22829;SDS011;11581;51.250;6.778;2023-02-12T08:12:29;39.58;;;24.50;;
22829;SDS011;11581;51.250;6.778;2023-02-12T08:14:57;41.08;;;24.23;;
22829;SDS011;11581;51.250;6.778;2023-02-12T08:17:26;37.75;;;24.15;;
22829;SDS011;11581;51.250;6.778;2023-02-12T08:19:53;36.85;;;23.80;;
22829;SDS011;11581;51.250;6.778;2023-02-12T08:22:20;37.85;;;24.52;;
22829;SDS011;11581;51.250;6.778;2023-02-12T08:24:47;37.25;;;24.02;;
22829;SDS011;11581;51.250;6.778;2023-02-12T08:27:14;34.45;;;22.23;;
22829;SDS011;11581;51.250;6.778;2023-02-12T08:29:41;37.85;;;25.23;;
22829;SDS011;11581;51.250;6.778;2023-02-12T08:32:09;39.47;;;24.70;;
22829;SDS011;11581;51.250;6.778;2023-02-12T08:34:39;35.95;;;23.65;;
22829;SDS011;11581;51.250;6.778;2023-02-12T08:37:07;38.63;;;24.75;;
22829;SDS011;11581;51.250;6.778;2023-02-12T08:39:34;36.05;;;23.00;;
22829;SDS011;11581;51.250;6.778;2023-02-12T08:42:01;35.67;;;24.20;;
22829;SDS011;11581;51.250;6.778;2023-02-12T08:44:28;39.00;;;24.33;;
22829;SDS011;11581;51.250;6.778;2023-02-12T08:46:55;37.90;;;23.08;;
22829;SDS011;11581;51.250;6.778;2023-02-12T08:49:24;37.83;;;23.42;;
22829;SDS011;11581;51.250;6.778;2023-02-12T08:51:54;36.00;;;23.50;;
22829;SDS011;11581;51.250;6.778;2023-02-12T08:54:22;36.45;;;23.33;;
22829;SDS011;11581;51.250;6.778;2023-02-12T08:56:53;35.85;;;23.25;;
22829;SDS011;11581;51.250;6.778;2023-02-12T08:59:22;36.70;;;23.55;;
22829;SDS011;11581;51.250;6.778;2023-02-12T09:01:50;36.85;;;22.45;;
22829;SDS011;11581;51.250;6.778;2023-02-12T09:04:20;38.22;;;24.15;;
22829;SDS011;11581;51.250;6.778;2023-02-12T09:06:49;38.00;;;23.80;;
22829;SDS011;11581;51.250;6.778;2023-02-12T09:09:18;33.42;;;21.85;;
22829;SDS011;11581;51.250;6.778;2023-02-12T09:11:45;34.75;;;23.75;;
22829;SDS011;11581;51.250;6.778;2023-02-12T09:14:17;35.17;;;22.92;;
22829;SDS011;11581;51.250;6.778;2023-02-12T09:16:48;32.97;;;21.60;;
22829;SDS011;11581;51.250;6.778;2023-02-12T09:19:16;31.55;;;21.45;;
22829;SDS011;11581;51.250;6.778;2023-02-12T09:21:43;33.38;;;21.77;;
22829;SDS011;11581;51.250;6.778;2023-02-12T09:24:10;32.25;;;21.80;;
22829;SDS011;11581;51.250;6.778;2023-02-12T09:26:38;27.65;;;18.88;;
22829;SDS011;11581;51.250;6.778;2023-02-12T09:29:05;33.25;;;19.98;;
22829;SDS011;11581;51.250;6.778;2023-02-12T09:31:32;28.63;;;18.60;;
22829;SDS011;11581;51.250;6.778;2023-02-12T09:34:00;30.27;;;20.30;;
22829;SDS011;11581;51.250;6.778;2023-02-12T09:36:30;32.00;;;21.35;;
22829;SDS011;11581;51.250;6.778;2023-02-12T09:38:57;30.17;;;21.13;;
22829;SDS011;11581;51.250;6.778;2023-02-12T09:44:35;29.08;;;19.48;;
22829;SDS011;11581;51.250;6.778;2023-02-12T09:47:10;30.55;;;20.70;;
22829;SDS011;11581;51.250;6.778;2023-02-12T09:49:44;34.05;;;22.33;;
22829;SDS011;11581;51.250;6.778;2023-02-12T09:52:23;36.45;;;22.80;;
22829;SDS011;11581;51.250;6.778;2023-02-12T09:54:53;31.73;;;21.90;;
22829;SDS011;11581;51.250;6.778;2023-02-12T09:57:25;34.08;;;22.55;;
22829;SDS011;11581;51.250;6.778;2023-02-12T09:59:56;36.05;;;22.35;;
22829;SDS011;11581;51.250;6.778;2023-02-12T10:02:26;34.92;;;22.70;;
22829;SDS011;11581;51.250;6.778;2023-02-12T10:04:53;33.47;;;22.65;;
22829;SDS011;11581;51.250;6.778;2023-02-12T10:07:23;33.72;;;23.00;;
22829;SDS011;11581;51.250;6.778;2023-02-12T10:10:12;32.30;;;22.55;;
22829;SDS011;11581;51.250;6.778;2023-02-12T10:12:54;35.20;;;22.48;;
22829;SDS011;11581;51.250;6.778;2023-02-12T10:15:30;34.95;;;23.08;;
22829;SDS011;11581;51.250;6.778;2023-02-12T10:18:05;34.83;;;21.85;;
22829;SDS011;11581;51.250;6.778;2023-02-12T10:20:47;32.10;;;21.17;;
22829;SDS011;11581;51.250;6.778;2023-02-12T10:23:27;33.63;;;22.88;;
22829;SDS011;11581;51.250;6.778;2023-02-12T10:26:09;30.45;;;20.48;;
22829;SDS011;11581;51.250;6.778;2023-02-12T10:28:44;31.50;;;20.42;;
22829;SDS011;11581;51.250;6.778;2023-02-12T10:31:14;28.65;;;20.02;;
22829;SDS011;11581;51.250;6.778;2023-02-12T10:33:45;32.40;;;21.48;;
22829;SDS011;11581;51.250;6.778;2023-02-12T10:36:17;25.05;;;18.20;;
22829;SDS011;11581;51.250;6.778;2023-02-12T10:38:54;29.25;;;19.48;;
22829;SDS011;11581;51.250;6.778;2023-02-12T10:41:27;26.98;;;19.30;;
22829;SDS011;11581;51.250;6.778;2023-02-12T10:43:58;28.30;;;18.55;;
22829;SDS011;11581;51.250;6.778;2023-02-12T10:46:27;27.15;;;18.75;;
22829;SDS011;11581;51.250;6.778;2023-02-12T10:48:57;27.77;;;19.20;;
22829;SDS011;11581;51.250;6.778;2023-02-12T10:51:34;26.08;;;17.83;;
22829;SDS011;11581;51.250;6.778;2023-02-12T10:57:10;25.58;;;17.65;;
22829;SDS011;11581;51.250;6.778;2023-02-12T10:59:41;27.95;;;18.38;;
22829;SDS011;11581;51.250;6.778;2023-02-12T11:04:56;26.83;;;17.50;;
22829;SDS011;11581;51.250;6.778;2023-02-12T11:07:24;26.05;;;18.58;;
22829;SDS011;11581;51.250;6.778;2023-02-12T11:09:54;28.13;;;19.17;;
22829;SDS011;11581;51.250;6.778;2023-02-12T11:12:24;27.73;;;18.88;;
22829;SDS011;11581;51.250;6.778;2023-02-12T11:14:58;28.52;;;18.75;;
22829;SDS011;11581;51.250;6.778;2023-02-12T11:17:29;26.63;;;18.83;;
22829;SDS011;11581;51.250;6.778;2023-02-12T11:20:01;27.43;;;18.23;;
22829;SDS011;11581;51.250;6.778;2023-02-12T11:22:34;27.52;;;18.90;;
22829;SDS011;11581;51.250;6.778;2023-02-12T11:25:07;27.42;;;17.90;;
22829;SDS011;11581;51.250;6.778;2023-02-12T11:27:42;31.00;;;17.92;;
22829;SDS011;11581;51.250;6.778;2023-02-12T11:30:15;25.90;;;17.42;;
22829;SDS011;11581;51.250;6.778;2023-02-12T11:32:44;28.00;;;17.58;;
22829;SDS011;11581;51.250;6.778;2023-02-12T11:35:13;26.80;;;18.33;;
22829;SDS011;11581;51.250;6.778;2023-02-12T11:37:48;25.00;;;17.52;;
22829;SDS011;11581;51.250;6.778;2023-02-12T11:40:18;25.05;;;18.05;;
22829;SDS011;11581;51.250;6.778;2023-02-12T11:42:46;26.35;;;18.80;;
22829;SDS011;11581;51.250;6.778;2023-02-12T11:45:19;22.92;;;16.27;;
22829;SDS011;11581;51.250;6.778;2023-02-12T11:47:48;24.00;;;18.23;;
22829;SDS011;11581;51.250;6.778;2023-02-12T11:50:19;27.50;;;18.58;;
22829;SDS011;11581;51.250;6.778;2023-02-12T11:52:51;26.60;;;18.42;;
22829;SDS011;11581;51.250;6.778;2023-02-12T11:55:23;25.23;;;17.30;;
22829;SDS011;11581;51.250;6.778;2023-02-12T11:57:52;23.90;;;16.77;;
22829;SDS011;11581;51.250;6.778;2023-02-12T12:00:28;23.98;;;16.63;;
22829;SDS011;11581;51.250;6.778;2023-02-12T12:02:59;24.17;;;16.08;;
22829;SDS011;11581;51.250;6.778;2023-02-12T12:05:34;26.27;;;16.80;;
22829;SDS011;11581;51.250;6.778;2023-02-12T12:08:03;22.80;;;16.02;;
22829;SDS011;11581;51.250;6.778;2023-02-12T12:10:38;24.50;;;17.38;;
22829;SDS011;11581;51.250;6.778;2023-02-12T12:15:58;21.05;;;16.10;;
22829;SDS011;11581;51.250;6.778;2023-02-12T12:18:50;22.05;;;15.80;;
22829;SDS011;11581;51.250;6.778;2023-02-12T12:21:40;21.80;;;14.43;;
22829;SDS011;11581;51.250;6.778;2023-02-12T12:24:13;23.35;;;15.52;;
22829;SDS011;11581;51.250;6.778;2023-02-12T12:26:46;22.75;;;14.60;;
22829;SDS011;11581;51.250;6.778;2023-02-12T12:29:25;20.58;;;14.48;;
22829;SDS011;11581;51.250;6.778;2023-02-12T12:32:00;20.15;;;14.18;;
22829;SDS011;11581;51.250;6.778;2023-02-12T12:34:30;20.00;;;13.88;;
22829;SDS011;11581;51.250;6.778;2023-02-12T12:37:04;25.00;;;15.18;;
22829;SDS011;11581;51.250;6.778;2023-02-12T12:40:06;19.20;;;13.65;;
22829;SDS011;11581;51.250;6.778;2023-02-12T12:43:05;19.23;;;13.77;;
22829;SDS011;11581;51.250;6.778;2023-02-12T12:45:51;21.67;;;13.63;;
22829;SDS011;11581;51.250;6.778;2023-02-12T12:48:54;19.10;;;13.63;;
22829;SDS011;11581;51.250;6.778;2023-02-12T12:51:38;17.50;;;12.88;;
22829;SDS011;11581;51.250;6.778;2023-02-12T12:54:28;21.25;;;13.25;;
22829;SDS011;11581;51.250;6.778;2023-02-12T12:57:08;20.17;;;13.75;;
22829;SDS011;11581;51.250;6.778;2023-02-12T13:02:47;22.77;;;13.57;;
22829;SDS011;11581;51.250;6.778;2023-02-12T13:08:47;23.45;;;15.63;;
22829;SDS011;11581;51.250;6.778;2023-02-12T13:11:28;21.33;;;15.82;;
22829;SDS011;11581;51.250;6.778;2023-02-12T13:14:10;22.48;;;15.05;;
22829;SDS011;11581;51.250;6.778;2023-02-12T13:16:48;24.30;;;14.75;;
22829;SDS011;11581;51.250;6.778;2023-02-12T13:19:23;22.42;;;15.88;;
22829;SDS011;11581;51.250;6.778;2023-02-12T13:22:03;23.40;;;15.77;;
22829;SDS011;11581;51.250;6.778;2023-02-12T13:24:39;22.63;;;14.57;;
22829;SDS011;11581;51.250;6.778;2023-02-12T13:27:11;22.73;;;16.23;;
22829;SDS011;11581;51.250;6.778;2023-02-12T13:29:42;24.27;;;14.88;;
22829;SDS011;11581;51.250;6.778;2023-02-12T13:32:13;22.75;;;15.20;;
22829;SDS011;11581;51.250;6.778;2023-02-12T13:34:42;22.70;;;14.70;;
22829;SDS011;11581;51.250;6.778;2023-02-12T13:37:12;24.75;;;16.70;;
22829;SDS011;11581;51.250;6.778;2023-02-12T13:39:44;22.95;;;15.23;;
22829;SDS011;11581;51.250;6.778;2023-02-12T13:42:17;22.75;;;15.52;;
22829;SDS011;11581;51.250;6.778;2023-02-12T13:44:54;22.58;;;14.25;;
22829;SDS011;11581;51.250;6.778;2023-02-12T13:47:29;23.63;;;15.57;;
22829;SDS011;11581;51.250;6.778;2023-02-12T13:50:04;20.63;;;13.38;;
22829;SDS011;11581;51.250;6.778;2023-02-12T13:52:42;20.67;;;12.75;;
22829;SDS011;11581;51.250;6.778;2023-02-12T13:55:20;22.77;;;14.10;;
22829;SDS011;11581;51.250;6.778;2023-02-12T14:00:55;18.73;;;12.40;;
22829;SDS011;11581;51.250;6.778;2023-02-12T14:03:25;21.05;;;12.55;;
22829;SDS011;11581;51.250;6.778;2023-02-12T14:06:07;18.30;;;13.57;;
22829;SDS011;11581;51.250;6.778;2023-02-12T14:08:37;20.70;;;13.05;;
22829;SDS011;11581;51.250;6.778;2023-02-12T14:11:08;17.85;;;13.07;;
22829;SDS011;11581;51.250;6.778;2023-02-12T14:13:45;22.17;;;13.35;;
22829;SDS011;11581;51.250;6.778;2023-02-12T14:16:19;19.30;;;12.38;;
22829;SDS011;11581;51.250;6.778;2023-02-12T14:28:19;21.05;;;12.95;;
22829;SDS011;11581;51.250;6.778;2023-02-12T14:37:14;18.75;;;12.65;;
22829;SDS011;11581;51.250;6.778;2023-02-12T14:39:43;17.33;;;12.63;;
22829;SDS011;11581;51.250;6.778;2023-02-12T14:45:36;20.45;;;11.80;;
22829;SDS011;11581;51.250;6.778;2023-02-12T14:48:04;18.50;;;11.75;;
22829;SDS011;11581;51.250;6.778;2023-02-12T14:50:36;18.75;;;12.07;;
22829;SDS011;11581;51.250;6.778;2023-02-12T14:53:15;18.40;;;12.50;;
22829;SDS011;11581;51.250;6.778;2023-02-12T14:55:52;19.85;;;12.63;;
22829;SDS011;11581;51.250;6.778;2023-02-12T14:58:20;20.77;;;12.90;;
22829;SDS011;11581;51.250;6.778;2023-02-12T15:00:51;20.63;;;12.90;;
22829;SDS011;11581;51.250;6.778;2023-02-12T15:03:22;21.15;;;12.20;;
22829;SDS011;11581;51.250;6.778;2023-02-12T15:06:09;18.95;;;12.10;;
22829;SDS011;11581;51.250;6.778;2023-02-12T15:08:42;20.17;;;12.68;;
22829;SDS011;11581;51.250;6.778;2023-02-12T15:11:18;19.05;;;12.18;;
22829;SDS011;11581;51.250;6.778;2023-02-12T15:13:52;16.90;;;11.20;;
22829;SDS011;11581;51.250;6.778;2023-02-12T15:19:26;20.83;;;12.55;;
22829;SDS011;11581;51.250;6.778;2023-02-12T15:22:12;19.25;;;10.80;;
22829;SDS011;11581;51.250;6.778;2023-02-12T15:24:46;18.92;;;13.02;;
22829;SDS011;11581;51.250;6.778;2023-02-12T15:27:13;23.45;;;12.82;;
22829;SDS011;11581;51.250;6.778;2023-02-12T15:29:41;17.45;;;11.73;;
22829;SDS011;11581;51.250;6.778;2023-02-12T15:32:14;18.70;;;12.73;;
22829;SDS011;11581;51.250;6.778;2023-02-12T15:34:46;20.55;;;12.68;;
22829;SDS011;11581;51.250;6.778;2023-02-12T15:37:17;18.45;;;12.43;;
22829;SDS011;11581;51.250;6.778;2023-02-12T15:39:48;20.67;;;11.88;;
22829;SDS011;11581;51.250;6.778;2023-02-12T15:42:28;17.30;;;11.65;;